• Join FlightAware (Why Join?)
  • Login
  • US Flag 
11:28AM EDT


 

Airport Tracker/Info


-or-


 

Live Flight TrackerFlight Track Log ✈ UPS1078 ✈ 02-Mar-2012 ✈ KBDL - KEWR

Flight Track Log - Related Links

Times and Time Zones

All times are in EST time to prevent confusion due to time zone crossing. See the UPS1078 flight status page for this flight to view local times or setup timezone preferences in your user account.

Time Position Orientation Groundspeed Altitude Reporting Facility
EST Latitude Longitude Course Direction KTS MPH feet Rate Location/Type
05:06AM 41.9436 -72.6772 34° Northeast 145 167 1,800  Level Boston Center
05:07AM 41.9897 -72.6356 296° West 198 228 4,700 3,060 Climbing Boston Center
05:08AM 42.0167 -72.7111 252° West 152 175 8,500 3,480 Climbing Boston Center
05:09AM 41.9892 -72.8228 258° West 181 208 11,700 2,700 Climbing Boston Center
05:10AM 41.9678 -72.9567 250° West 308 354 14,000 1,200 Climbing Boston Center
05:11AM 41.9294 -73.0958 245° Southwest 350 403 14,100  Climbing Boston Center
05:12AM 41.8914 -73.2042 244° Southwest 368 423 14,000  Descending Boston Center
05:13AM 41.8425 -73.3403 235° Southwest 368 423 14,100 -60 Climbing Boston Center
05:14AM 41.7853 -73.4508 230° Southwest 368 423 13,900 -120 Descending Boston Center
05:15AM 41.7156 -73.5608 229° Southwest 379 436 13,900 -660 Level Boston Center
05:16AM 41.6478 -73.6653 228° Southwest 379 436 12,600 -1,500 Descending Boston Center
05:17AM 41.5819 -73.7639 228° Southwest 379 436 11,000 -1,380 Descending Boston Center
05:18AM 41.5161 -73.8622 231° Southwest 364 419 9,900 -540 Descending Boston Center
05:19AM 41.4564 -73.9608 227° Southwest 356 410 10,000 60 Climbing Boston Center
05:20AM 41.3833 -74.0667 225° Southwest 268 308 10,100 -600 Climbing New York TRACON
05:21AM 41.3333 -74.1333 201° Southwest 264 304 8,600 -1,500 Descending New York TRACON
05:22AM 41.2667 -74.1667 191° South 277 319 7,100 -1,260 Descending New York TRACON
05:23AM 41.2000 -74.1833 197° South 266 306 6,100 -960 Descending New York TRACON
05:24AM 41.1167 -74.2167 201° Southwest 267 307 5,200 -480 Descending New York TRACON
05:25AM 41.0500 -74.2500 191° South 264 304 5,100 -60 Descending New York TRACON
05:26AM 40.9833 -74.2667 197° South 265 305 5,100 -180 Level New York TRACON
05:27AM 40.9000 -74.3000 191° South 266 306 4,800 -660 Descending New York TRACON
05:28AM 40.8333 -74.3167 197° South 267 307 3,800 -840 Descending New York TRACON
05:29AM 40.7500 -74.3500 191° South 256 295 3,100 -360 Descending New York TRACON
05:30AM 40.6833 -74.3667 169° South 246 283 3,100  Level New York TRACON
05:31AM 40.6167 -74.3500 169° South 239 275 3,100  Level New York TRACON
05:32AM 40.5500 -74.3333 90° East 211 243 3,100 -240 Level New York TRACON
05:33AM 40.5500 -74.2667 37° Northeast 184 212 2,700 -540 Descending New York TRACON
05:34AM 40.5833 -74.2333 21° North 168 193 2,100 -600 Descending New York TRACON
05:35AM 40.6167 -74.2167 21° North 146 168 1,600 -660 Descending New York TRACON
05:36AM 40.6500 -74.2000 21° North 115 132 800 -780 Descending New York TRACON